DLH509 EDDM-KMIA
Flight info
| Callsign | DLH509 |
|---|---|
| Flight time | 9h 48m |
| Altitude | 24000 |
| Route | MERSI4E MERSI Y100 UMTEX/N0478F350 Y100 TRA L856 HOC/N0479F360 DCT LUL DCT RLP DCT ROTSI/N0481F380 DCT AMODO DCT COHPA UM729 RESMI UN491 LGL UN502 JSY DCT LIZAD DCT LULOX/M084F380 DCT GIPER DCT ELSOX DCT DINIM/M084F390 NATG NICSO/M084F400 DCT LOMPI M202 ONGOT DCT PADRK M203 SNAGY/N0478F400 BNFSH3 |
| Aircraft | A359/H-SDE2E3GHIJ3J4J5LM1ORWXY/LB1D1 |
Departure
| Time | 2026-04-30 09:01 |
|---|---|
| Airport | Munich Airport (EDDM) |
Arrival
| Time | 2026-04-30 18:49 |
|---|---|
| Airport | Miami International Airport (KMIA) |
| Time | Latitude | Longitude | Altitude | Speed | Heading |
|---|---|---|---|---|---|
| 2026-04-30 08:36 | 48.35411 | 11.79326 | 1482 ft | 0 kts | 271° |
| 2026-04-30 08:45 | 48.35411 | 11.79331 | 1491 ft | 3 kts | 270° |
| 2026-04-30 08:45 | 48.35413 | 11.79371 | 1483 ft | 4 kts | 257° |
| 2026-04-30 08:45 | 48.35421 | 11.79409 | 1476 ft | 4 kts | 240° |
| 2026-04-30 08:46 | 48.35436 | 11.79439 | 1476 ft | 4 kts | 217° |
| 2026-04-30 08:46 | 48.35458 | 11.79453 | 1476 ft | 3 kts | 176° |
| 2026-04-30 08:46 | 48.35461 | 11.79453 | 1477 ft | 0 kts | 173° |
| 2026-04-30 08:48 | 48.35456 | 11.79454 | 1476 ft | 2 kts | 174° |
| 2026-04-30 08:48 | 48.35375 | 11.79470 | 1484 ft | 27 kts | 172° |
| 2026-04-30 08:48 | 48.35189 | 11.79502 | 1476 ft | 27 kts | 174° |
| 2026-04-30 08:49 | 48.35004 | 11.79534 | 1484 ft | 27 kts | 173° |
| 2026-04-30 08:49 | 48.34827 | 11.79551 | 1481 ft | 24 kts | 199° |
| 2026-04-30 08:49 | 48.34774 | 11.79339 | 1483 ft | 23 kts | 263° |
| 2026-04-30 08:49 | 48.34754 | 11.79094 | 1488 ft | 24 kts | 263° |
| 2026-04-30 08:50 | 48.34734 | 11.78832 | 1482 ft | 27 kts | 263° |
| 2026-04-30 08:50 | 48.34712 | 11.78529 | 1485 ft | 32 kts | 264° |
| 2026-04-30 08:50 | 48.34684 | 11.78181 | 1481 ft | 34 kts | 262° |
| 2026-04-30 08:50 | 48.34657 | 11.77823 | 1491 ft | 34 kts | 264° |
| 2026-04-30 08:51 | 48.34630 | 11.77463 | 1481 ft | 35 kts | 263° |
| 2026-04-30 08:51 | 48.34601 | 11.77100 | 1491 ft | 35 kts | 263° |
| 2026-04-30 08:51 | 48.34573 | 11.76730 | 1484 ft | 36 kts | 263° |
| 2026-04-30 08:51 | 48.34544 | 11.76358 | 1484 ft | 36 kts | 264° |
| 2026-04-30 08:52 | 48.34514 | 11.75985 | 1479 ft | 36 kts | 262° |
| 2026-04-30 08:52 | 48.34487 | 11.75609 | 1483 ft | 36 kts | 264° |
| 2026-04-30 08:52 | 48.34458 | 11.75230 | 1488 ft | 36 kts | 263° |
| 2026-04-30 08:52 | 48.34409 | 11.75074 | 1476 ft | 14 kts | 202° |
| 2026-04-30 08:53 | 48.34312 | 11.75078 | 1491 ft | 15 kts | 173° |
| 2026-04-30 08:53 | 48.34211 | 11.75096 | 1483 ft | 11 kts | 172° |
| 2026-04-30 08:53 | 48.34206 | 11.75097 | 1482 ft | 0 kts | 172° |
| 2026-04-30 08:57 | 48.34203 | 11.75098 | 1476 ft | 0 kts | 171° |
| 2026-04-30 09:00 | 48.34106 | 11.75171 | 1478 ft | 22 kts | 121° |
| 2026-04-30 09:00 | 48.34098 | 11.75438 | 1492 ft | 47 kts | 84° |
| 2026-04-30 09:01 | 48.34167 | 11.76352 | 1492 ft | 127 kts | 83° |
| 2026-04-30 09:01 | 48.34275 | 11.77898 | 2018 ft | 151 kts | 86° |
| 2026-04-30 09:01 | 48.34369 | 11.79446 | 3086 ft | 152 kts | 84° |
| 2026-04-30 09:01 | 48.34504 | 11.81142 | 3680 ft | 180 kts | 84° |
| 2026-04-30 09:02 | 48.34817 | 11.85167 | 4619 ft | 212 kts | 84° |
| 2026-04-30 09:02 | 48.34993 | 11.87421 | 5184 ft | 221 kts | 84° |
| 2026-04-30 09:02 | 48.35173 | 11.89736 | 5915 ft | 224 kts | 84° |
| 2026-04-30 09:03 | 48.35348 | 11.92069 | 6712 ft | 224 kts | 85° |
| 2026-04-30 09:03 | 48.35333 | 11.94433 | 7374 ft | 230 kts | 97° |
| 2026-04-30 09:03 | 48.34937 | 11.96805 | 7970 ft | 240 kts | 112° |
| 2026-04-30 09:03 | 48.33879 | 11.98776 | 8661 ft | 248 kts | 137° |
| 2026-04-30 09:04 | 48.32518 | 12.00396 | 9417 ft | 253 kts | 138° |
| 2026-04-30 09:04 | 48.31030 | 12.01924 | 10036 ft | 265 kts | 148° |
| 2026-04-30 09:04 | 48.29269 | 12.02851 | 10661 ft | 274 kts | 169° |
| 2026-04-30 09:04 | 48.27307 | 12.02929 | 11094 ft | 292 kts | 181° |
| 2026-04-30 09:05 | 48.25226 | 12.02722 | 11550 ft | 306 kts | 181° |
| 2026-04-30 09:05 | 48.23089 | 12.02520 | 12290 ft | 309 kts | 181° |
| 2026-04-30 09:05 | 48.20970 | 12.02351 | 13082 ft | 310 kts | 181° |
| 2026-04-30 09:05 | 48.18773 | 12.02195 | 13761 ft | 316 kts | 180° |
| 2026-04-30 09:06 | 48.16579 | 12.02053 | 14339 ft | 322 kts | 180° |
| 2026-04-30 09:06 | 48.14333 | 12.01913 | 15001 ft | 324 kts | 180° |
| 2026-04-30 09:06 | 48.12057 | 12.01771 | 15578 ft | 330 kts | 180° |
| 2026-04-30 09:06 | 48.09775 | 12.01192 | 16153 ft | 337 kts | 198° |
| 2026-04-30 09:07 | 48.07749 | 11.99423 | 16755 ft | 341 kts | 223° |
| 2026-04-30 09:07 | 48.06358 | 11.96576 | 17338 ft | 342 kts | 249° |
| 2026-04-30 09:07 | 48.05629 | 11.93190 | 17913 ft | 344 kts | 259° |
| 2026-04-30 09:07 | 48.05065 | 11.89692 | 18485 ft | 348 kts | 259° |
| 2026-04-30 09:08 | 48.04501 | 11.86156 | 19007 ft | 353 kts | 259° |
| 2026-04-30 09:08 | 48.03917 | 11.82573 | 19501 ft | 357 kts | 259° |
| 2026-04-30 09:08 | 48.03316 | 11.78955 | 20013 ft | 360 kts | 259° |
| 2026-04-30 09:08 | 48.02704 | 11.75306 | 20512 ft | 364 kts | 259° |
| 2026-04-30 09:09 | 48.02081 | 11.71619 | 21009 ft | 368 kts | 259° |
| 2026-04-30 09:09 | 48.01463 | 11.67889 | 21480 ft | 371 kts | 261° |
| 2026-04-30 09:09 | 48.01100 | 11.64077 | 21997 ft | 372 kts | 269° |
| 2026-04-30 09:09 | 48.00910 | 11.60212 | 22469 ft | 375 kts | 270° |
| 2026-04-30 09:10 | 48.00738 | 11.56316 | 22949 ft | 378 kts | 270° |
| 2026-04-30 09:10 | 48.00563 | 11.52378 | 23406 ft | 382 kts | 270° |
| 2026-04-30 09:10 | 48.00381 | 11.48404 | 23909 ft | 385 kts | 270° |
| 2026-04-30 09:10 | 48.00193 | 11.44398 | 24311 ft | 388 kts | 270° |
| 2026-04-30 09:11 | 48.00003 | 11.40355 | 24699 ft | 392 kts | 270° |
| 2026-04-30 09:11 | 47.99808 | 11.36282 | 25103 ft | 395 kts | 270° |
| 2026-04-30 09:11 | 47.99613 | 11.32230 | 25499 ft | 398 kts | 270° |
| 2026-04-30 09:11 | 47.99409 | 11.28048 | 25890 ft | 401 kts | 270° |
| 2026-04-30 09:12 | 47.99207 | 11.23920 | 26270 ft | 404 kts | 270° |
| 2026-04-30 09:12 | 47.99001 | 11.19725 | 26659 ft | 407 kts | 270° |
| 2026-04-30 09:12 | 47.98790 | 11.15494 | 27041 ft | 410 kts | 270° |
| 2026-04-30 09:12 | 47.98577 | 11.11240 | 27425 ft | 413 kts | 270° |
| 2026-04-30 09:13 | 47.98359 | 11.06953 | 27778 ft | 416 kts | 270° |
| 2026-04-30 09:13 | 47.97939 | 11.02657 | 28155 ft | 422 kts | 262° |
| 2026-04-30 09:13 | 47.97289 | 10.98345 | 28359 ft | 431 kts | 259° |
| 2026-04-30 09:13 | 47.96618 | 10.93939 | 28532 ft | 438 kts | 262° |
| 2026-04-30 09:14 | 47.96020 | 10.89447 | 28719 ft | 446 kts | 263° |
| 2026-04-30 09:14 | 47.95444 | 10.84861 | 28900 ft | 453 kts | 263° |
| 2026-04-30 09:14 | 47.94862 | 10.80201 | 29096 ft | 461 kts | 263° |
| 2026-04-30 09:14 | 47.94259 | 10.75458 | 29278 ft | 469 kts | 262° |
| 2026-04-30 09:15 | 47.93639 | 10.70700 | 29470 ft | 477 kts | 262° |
| 2026-04-30 09:15 | 47.93092 | 10.65785 | 29640 ft | 483 kts | 265° |
| 2026-04-30 09:15 | 47.92619 | 10.60787 | 29796 ft | 490 kts | 265° |
| 2026-04-30 09:15 | 47.92174 | 10.55719 | 29989 ft | 497 kts | 266° |
| 2026-04-30 09:16 | 47.91735 | 10.50567 | 30258 ft | 502 kts | 266° |
| 2026-04-30 09:16 | 47.91444 | 10.47132 | 30446 ft | 505 kts | 266° |
| 2026-04-30 09:16 | 47.90994 | 10.41865 | 30771 ft | 507 kts | 266° |
| 2026-04-30 09:16 | 47.90548 | 10.36707 | 31130 ft | 509 kts | 266° |
| 2026-04-30 09:17 | 47.90089 | 10.31468 | 31492 ft | 510 kts | 265° |
| 2026-04-30 09:17 | 47.89624 | 10.26214 | 31869 ft | 511 kts | 265° |
| 2026-04-30 09:17 | 47.89154 | 10.20953 | 32199 ft | 513 kts | 265° |
| 2026-04-30 09:17 | 47.88682 | 10.15705 | 32294 ft | 505 kts | 265° |
| 2026-04-30 09:18 | 47.88216 | 10.10598 | 32310 ft | 490 kts | 265° |
| 2026-04-30 09:18 | 47.87760 | 10.05626 | 32308 ft | 481 kts | 265° |
| 2026-04-30 09:18 | 47.86861 | 9.95782 | 32296 ft | 480 kts | 265° |
| 2026-04-30 09:19 | 47.85958 | 9.85936 | 32283 ft | 480 kts | 265° |
| 2026-04-30 09:19 | 47.85043 | 9.76087 | 32272 ft | 480 kts | 265° |
| 2026-04-30 09:20 | 47.84118 | 9.66243 | 32277 ft | 479 kts | 264° |
| 2026-04-30 09:20 | 47.83141 | 9.56416 | 32276 ft | 491 kts | 263° |
| 2026-04-30 09:21 | 47.81896 | 9.46224 | 32275 ft | 510 kts | 262° |
| 2026-04-30 09:21 | 47.80563 | 9.35683 | 32275 ft | 526 kts | 262° |
| 2026-04-30 09:22 | 47.79223 | 9.24901 | 32273 ft | 531 kts | 261° |
| 2026-04-30 09:22 | 47.77891 | 9.14132 | 32272 ft | 529 kts | 261° |
| 2026-04-30 09:23 | 47.76641 | 9.03364 | 32264 ft | 527 kts | 266° |
| 2026-04-30 09:23 | 47.76871 | 8.92569 | 32263 ft | 521 kts | 281° |
| 2026-04-30 09:24 | 47.78167 | 8.81989 | 32263 ft | 520 kts | 284° |
| 2026-04-30 09:24 | 47.79674 | 8.71485 | 32265 ft | 518 kts | 285° |
| 2026-04-30 09:25 | 47.81156 | 8.61003 | 32261 ft | 519 kts | 284° |
| 2026-04-30 09:25 | 47.82594 | 8.50468 | 32261 ft | 519 kts | 284° |
| 2026-04-30 09:26 | 47.83995 | 8.40008 | 32248 ft | 519 kts | 283° |
| 2026-04-30 09:26 | 47.85393 | 8.29466 | 32251 ft | 519 kts | 283° |
| 2026-04-30 09:27 | 47.86783 | 8.18913 | 32263 ft | 520 kts | 283° |
| 2026-04-30 09:27 | 47.88168 | 8.08336 | 32244 ft | 520 kts | 283° |
| 2026-04-30 09:28 | 47.89543 | 7.97760 | 32249 ft | 520 kts | 283° |
| 2026-04-30 09:28 | 47.90910 | 7.87173 | 32237 ft | 520 kts | 283° |
| 2026-04-30 09:29 | 47.92265 | 7.76584 | 32249 ft | 520 kts | 283° |
| 2026-04-30 09:29 | 47.93613 | 7.65974 | 32247 ft | 520 kts | 283° |
| 2026-04-30 09:30 | 47.94939 | 7.55452 | 32257 ft | 519 kts | 283° |
| 2026-04-30 09:30 | 47.96263 | 7.44866 | 32263 ft | 519 kts | 282° |
| 2026-04-30 09:31 | 47.97577 | 7.34279 | 32263 ft | 519 kts | 282° |
| 2026-04-30 09:31 | 47.98880 | 7.23686 | 32262 ft | 519 kts | 282° |
| 2026-04-30 09:32 | 48.00175 | 7.13088 | 32257 ft | 518 kts | 282° |
| 2026-04-30 09:32 | 48.01457 | 7.02501 | 32251 ft | 518 kts | 282° |
| 2026-04-30 09:33 | 48.02730 | 6.91910 | 32227 ft | 517 kts | 282° |
| 2026-04-30 09:33 | 48.03982 | 6.81401 | 32218 ft | 517 kts | 282° |
| 2026-04-30 09:34 | 48.05234 | 6.70808 | 32203 ft | 518 kts | 281° |
| 2026-04-30 09:34 | 48.06478 | 6.60195 | 32189 ft | 518 kts | 281° |
| 2026-04-30 09:35 | 48.07713 | 6.49573 | 32191 ft | 518 kts | 281° |
| 2026-04-30 09:35 | 48.08938 | 6.38943 | 32192 ft | 518 kts | 281° |
| 2026-04-30 09:36 | 48.10154 | 6.28309 | 32209 ft | 520 kts | 281° |
| 2026-04-30 09:36 | 48.11365 | 6.17633 | 32212 ft | 520 kts | 281° |
| 2026-04-30 09:37 | 48.12565 | 6.06946 | 32217 ft | 520 kts | 281° |
| 2026-04-30 09:37 | 48.13753 | 5.96273 | 32214 ft | 520 kts | 281° |
| 2026-04-30 09:38 | 48.14934 | 5.85575 | 32214 ft | 521 kts | 280° |
| 2026-04-30 09:38 | 48.16099 | 5.74932 | 32203 ft | 521 kts | 280° |
| 2026-04-30 09:39 | 48.17263 | 5.64199 | 32201 ft | 522 kts | 280° |
| 2026-04-30 09:39 | 48.18417 | 5.53460 | 32192 ft | 522 kts | 280° |
| 2026-04-30 09:40 | 48.19557 | 5.42745 | 32193 ft | 520 kts | 279° |
| 2026-04-30 09:40 | 48.20687 | 5.32036 | 32199 ft | 520 kts | 279° |
| 2026-04-30 09:41 | 48.21808 | 5.21317 | 32192 ft | 520 kts | 279° |
| 2026-04-30 09:41 | 48.22918 | 5.10600 | 32190 ft | 520 kts | 279° |
| 2026-04-30 09:42 | 48.24020 | 4.99855 | 32177 ft | 521 kts | 279° |
| 2026-04-30 09:42 | 48.25106 | 4.89165 | 32181 ft | 522 kts | 279° |
| 2026-04-30 09:43 | 48.26188 | 4.78406 | 32174 ft | 522 kts | 279° |
| 2026-04-30 09:43 | 48.27262 | 4.67641 | 32177 ft | 522 kts | 278° |
| 2026-04-30 09:44 | 48.28314 | 4.56873 | 32174 ft | 522 kts | 278° |
| 2026-04-30 09:44 | 48.29308 | 4.46079 | 32186 ft | 522 kts | 278° |
| 2026-04-30 09:45 | 48.30286 | 4.35263 | 32187 ft | 522 kts | 278° |
| 2026-04-30 09:45 | 48.31261 | 4.24467 | 32189 ft | 521 kts | 277° |
| 2026-04-30 09:46 | 48.32228 | 4.13686 | 32182 ft | 520 kts | 277° |
| 2026-04-30 09:46 | 48.33180 | 4.02962 | 32182 ft | 520 kts | 277° |
| 2026-04-30 09:47 | 48.34126 | 3.92185 | 32180 ft | 520 kts | 277° |
| 2026-04-30 09:47 | 48.35062 | 3.81406 | 32190 ft | 520 kts | 277° |
| 2026-04-30 09:48 | 48.35989 | 3.70613 | 32185 ft | 520 kts | 277° |
| 2026-04-30 09:48 | 48.36905 | 3.59825 | 32186 ft | 520 kts | 277° |
| 2026-04-30 09:49 | 48.37811 | 3.49028 | 32182 ft | 520 kts | 277° |
| 2026-04-30 09:49 | 48.38707 | 3.38221 | 32176 ft | 520 kts | 276° |
| 2026-04-30 09:50 | 48.39595 | 3.27395 | 32174 ft | 522 kts | 276° |
| 2026-04-30 09:50 | 48.40475 | 3.16543 | 32191 ft | 524 kts | 276° |
| 2026-04-30 09:51 | 48.40912 | 3.11103 | 32489 ft | 523 kts | 276° |
| 2026-04-30 09:51 | 48.41344 | 3.05687 | 32969 ft | 519 kts | 276° |
| 2026-04-30 09:51 | 48.41798 | 3.00306 | 33439 ft | 517 kts | 279° |
| 2026-04-30 09:51 | 48.42586 | 2.95033 | 33871 ft | 515 kts | 284° |
| 2026-04-30 09:52 | 48.43511 | 2.89821 | 34122 ft | 516 kts | 285° |
| 2026-04-30 09:52 | 48.44481 | 2.84635 | 34172 ft | 515 kts | 285° |
| 2026-04-30 09:52 | 48.46469 | 2.74348 | 34174 ft | 514 kts | 286° |
| 2026-04-30 09:53 | 48.48463 | 2.63998 | 34173 ft | 514 kts | 286° |
| 2026-04-30 09:53 | 48.50433 | 2.53626 | 34171 ft | 514 kts | 285° |
| 2026-04-30 09:54 | 48.52387 | 2.43240 | 34179 ft | 514 kts | 285° |
| 2026-04-30 09:54 | 48.54330 | 2.32849 | 34179 ft | 514 kts | 285° |
| 2026-04-30 09:55 | 48.56266 | 2.22448 | 34173 ft | 514 kts | 285° |
| 2026-04-30 09:55 | 48.58075 | 2.12007 | 34159 ft | 514 kts | 282° |
| 2026-04-30 09:56 | 48.59498 | 2.01434 | 34153 ft | 514 kts | 280° |
| 2026-04-30 09:56 | 48.60880 | 1.90837 | 34152 ft | 514 kts | 281° |
| 2026-04-30 09:57 | 48.62309 | 1.80261 | 34141 ft | 514 kts | 281° |
| 2026-04-30 09:57 | 48.63760 | 1.69693 | 34137 ft | 513 kts | 281° |
| 2026-04-30 09:58 | 48.65199 | 1.59207 | 34144 ft | 513 kts | 281° |
| 2026-04-30 09:58 | 48.66628 | 1.48616 | 34140 ft | 514 kts | 280° |
| 2026-04-30 09:59 | 48.69455 | 1.27398 | 34143 ft | 514 kts | 281° |
| 2026-04-30 10:00 | 48.71539 | 1.11560 | 34140 ft | 509 kts | 280° |
| 2026-04-30 10:01 | 48.73584 | 0.95845 | 34139 ft | 509 kts | 280° |
| 2026-04-30 10:02 | 48.75626 | 0.80036 | 34132 ft | 509 kts | 280° |
| 2026-04-30 10:02 | 48.76977 | 0.69494 | 34128 ft | 508 kts | 280° |
| 2026-04-30 10:03 | 48.78313 | 0.58994 | 34127 ft | 507 kts | 280° |
| 2026-04-30 10:03 | 48.79698 | 0.48488 | 34119 ft | 509 kts | 283° |
| 2026-04-30 10:04 | 48.81570 | 0.38154 | 34117 ft | 506 kts | 286° |
| 2026-04-30 10:04 | 48.83219 | 0.29640 | 34112 ft | 505 kts | 286° |
| 2026-04-30 10:05 | 48.85143 | 0.19334 | 34115 ft | 508 kts | 285° |
| 2026-04-30 10:05 | 48.86997 | 0.09028 | 34110 ft | 505 kts | 285° |
| 2026-04-30 10:06 | 48.88819 | -0.01276 | 34111 ft | 505 kts | 284° |
| 2026-04-30 10:06 | 48.90639 | -0.11628 | 34108 ft | 507 kts | 284° |
| 2026-04-30 10:07 | 48.92439 | -0.21910 | 34111 ft | 506 kts | 284° |
| 2026-04-30 10:07 | 48.94234 | -0.32254 | 34109 ft | 506 kts | 284° |
| 2026-04-30 10:08 | 48.95981 | -0.42655 | 34105 ft | 507 kts | 284° |
| 2026-04-30 10:08 | 48.97712 | -0.53053 | 34103 ft | 506 kts | 284° |
| 2026-04-30 10:09 | 48.99439 | -0.63433 | 34103 ft | 507 kts | 284° |
| 2026-04-30 10:09 | 49.01166 | -0.73852 | 34097 ft | 507 kts | 284° |
| 2026-04-30 10:10 | 49.02882 | -0.84264 | 34098 ft | 506 kts | 283° |
| 2026-04-30 10:10 | 49.04587 | -0.94682 | 34096 ft | 507 kts | 283° |
| 2026-04-30 10:11 | 49.06288 | -1.05138 | 34096 ft | 508 kts | 283° |
| 2026-04-30 10:11 | 49.07980 | -1.15602 | 34081 ft | 507 kts | 283° |
| 2026-04-30 10:12 | 49.09671 | -1.26051 | 34097 ft | 507 kts | 283° |
| 2026-04-30 10:12 | 49.11364 | -1.36510 | 34087 ft | 507 kts | 283° |
| 2026-04-30 10:13 | 49.13038 | -1.46919 | 34088 ft | 509 kts | 283° |
| 2026-04-30 10:13 | 49.14716 | -1.57427 | 34088 ft | 509 kts | 283° |
| 2026-04-30 10:14 | 49.16382 | -1.67929 | 34098 ft | 509 kts | 283° |
| 2026-04-30 10:14 | 49.18866 | -1.83714 | 34094 ft | 510 kts | 282° |
| 2026-04-30 10:15 | 49.20514 | -1.94278 | 34064 ft | 511 kts | 282° |
| 2026-04-30 10:15 | 49.22156 | -2.04861 | 34097 ft | 511 kts | 281° |
| 2026-04-30 10:16 | 49.23902 | -2.15408 | 34091 ft | 511 kts | 283° |
| 2026-04-30 10:17 | 49.26659 | -2.31195 | 34089 ft | 513 kts | 282° |
| 2026-04-30 10:17 | 49.29357 | -2.47009 | 34082 ft | 513 kts | 282° |
| 2026-04-30 10:18 | 49.31138 | -2.57601 | 34080 ft | 513 kts | 282° |
| 2026-04-30 10:19 | 49.33788 | -2.73505 | 34082 ft | 514 kts | 282° |
| 2026-04-30 10:19 | 49.35550 | -2.84154 | 34084 ft | 515 kts | 282° |
| 2026-04-30 10:20 | 49.37302 | -2.94800 | 34089 ft | 515 kts | 282° |
| 2026-04-30 10:20 | 49.39912 | -3.10796 | 34092 ft | 515 kts | 281° |
| 2026-04-30 10:21 | 49.41629 | -3.21400 | 34083 ft | 514 kts | 281° |
| 2026-04-30 10:21 | 49.43345 | -3.32070 | 34083 ft | 514 kts | 281° |
| 2026-04-30 10:22 | 49.45051 | -3.42741 | 34079 ft | 514 kts | 281° |
| 2026-04-30 10:22 | 49.46747 | -3.53418 | 34078 ft | 514 kts | 281° |
| 2026-04-30 10:23 | 49.48431 | -3.64092 | 34078 ft | 513 kts | 281° |
| 2026-04-30 10:23 | 49.50102 | -3.74753 | 34074 ft | 513 kts | 281° |
| 2026-04-30 10:24 | 49.51764 | -3.85429 | 34072 ft | 513 kts | 280° |
| 2026-04-30 10:24 | 49.53418 | -3.96117 | 34070 ft | 513 kts | 280° |
| 2026-04-30 10:25 | 49.55062 | -4.06814 | 34081 ft | 513 kts | 280° |
| 2026-04-30 10:25 | 49.56694 | -4.17512 | 34071 ft | 513 kts | 280° |
| 2026-04-30 10:26 | 49.58319 | -4.28228 | 34096 ft | 513 kts | 280° |
| 2026-04-30 10:26 | 49.59253 | -4.33550 | 34300 ft | 516 kts | 285° |
| 2026-04-30 10:26 | 49.60369 | -4.38725 | 34645 ft | 514 kts | 286° |
| 2026-04-30 10:27 | 49.61534 | -4.43928 | 34997 ft | 512 kts | 286° |
| 2026-04-30 10:27 | 49.62713 | -4.49092 | 35331 ft | 510 kts | 287° |
| 2026-04-30 10:27 | 49.63898 | -4.54243 | 35640 ft | 510 kts | 287° |
| 2026-04-30 10:27 | 49.65085 | -4.59403 | 35834 ft | 511 kts | 287° |
| 2026-04-30 10:28 | 49.66267 | -4.64563 | 36029 ft | 511 kts | 286° |
| 2026-04-30 10:28 | 49.67452 | -4.69754 | 36064 ft | 512 kts | 286° |
| 2026-04-30 10:28 | 49.69800 | -4.80111 | 36068 ft | 511 kts | 286° |
| 2026-04-30 10:29 | 49.72138 | -4.90485 | 36062 ft | 511 kts | 286° |
| 2026-04-30 10:29 | 49.74464 | -5.00864 | 36062 ft | 511 kts | 286° |
| 2026-04-30 10:30 | 49.76782 | -5.11254 | 36048 ft | 511 kts | 286° |
| 2026-04-30 10:30 | 49.79090 | -5.21652 | 36050 ft | 511 kts | 286° |
| 2026-04-30 10:31 | 49.81389 | -5.32061 | 36035 ft | 511 kts | 286° |
| 2026-04-30 10:31 | 49.83680 | -5.42482 | 36034 ft | 511 kts | 285° |
| 2026-04-30 10:32 | 49.85962 | -5.52918 | 36034 ft | 512 kts | 285° |
| 2026-04-30 10:32 | 49.88240 | -5.63392 | 36032 ft | 513 kts | 285° |
| 2026-04-30 10:33 | 49.90510 | -5.73880 | 36032 ft | 513 kts | 285° |
| 2026-04-30 10:33 | 49.92759 | -5.84319 | 36027 ft | 513 kts | 285° |
| 2026-04-30 10:34 | 49.95008 | -5.94816 | 36039 ft | 513 kts | 285° |
| 2026-04-30 10:34 | 49.97251 | -6.05338 | 36031 ft | 513 kts | 284° |
| 2026-04-30 10:35 | 49.99483 | -6.15863 | 36037 ft | 513 kts | 284° |
| 2026-04-30 10:35 | 50.01704 | -6.26392 | 36041 ft | 513 kts | 284° |
| 2026-04-30 10:36 | 50.03920 | -6.36950 | 36037 ft | 514 kts | 284° |
| 2026-04-30 10:36 | 50.06113 | -6.47458 | 36033 ft | 515 kts | 284° |
| 2026-04-30 10:37 | 50.08315 | -6.58059 | 36034 ft | 515 kts | 284° |
| 2026-04-30 10:37 | 50.10507 | -6.68671 | 36034 ft | 515 kts | 284° |
| 2026-04-30 10:38 | 50.12693 | -6.79308 | 36026 ft | 515 kts | 284° |
| 2026-04-30 10:38 | 50.14864 | -6.89933 | 36050 ft | 515 kts | 283° |
| 2026-04-30 10:39 | 50.17031 | -7.00592 | 36025 ft | 515 kts | 283° |
| 2026-04-30 10:39 | 50.19187 | -7.11256 | 36026 ft | 515 kts | 283° |
| 2026-04-30 10:40 | 50.21335 | -7.21937 | 36026 ft | 516 kts | 283° |
| 2026-04-30 10:40 | 50.23478 | -7.32661 | 36031 ft | 517 kts | 283° |
| 2026-04-30 10:41 | 50.25614 | -7.43401 | 36020 ft | 518 kts | 283° |
| 2026-04-30 10:41 | 50.27743 | -7.54167 | 36017 ft | 519 kts | 283° |
| 2026-04-30 10:42 | 50.29853 | -7.64900 | 36021 ft | 519 kts | 283° |
| 2026-04-30 10:42 | 50.31967 | -7.75706 | 36020 ft | 519 kts | 283° |
| 2026-04-30 10:43 | 50.34069 | -7.86511 | 36058 ft | 519 kts | 283° |
| 2026-04-30 10:43 | 50.36162 | -7.97334 | 36024 ft | 519 kts | 282° |
| 2026-04-30 10:44 | 50.38201 | -8.08199 | 36015 ft | 519 kts | 281° |
| 2026-04-30 10:44 | 50.40102 | -8.19126 | 36009 ft | 520 kts | 281° |
| 2026-04-30 10:45 | 50.41987 | -8.30074 | 36012 ft | 520 kts | 281° |
| 2026-04-30 10:45 | 50.43885 | -8.41035 | 36011 ft | 521 kts | 281° |
| 2026-04-30 10:46 | 50.45773 | -8.51941 | 36010 ft | 521 kts | 281° |
| 2026-04-30 10:46 | 50.47666 | -8.62930 | 36003 ft | 521 kts | 281° |
| 2026-04-30 10:47 | 50.49546 | -8.73920 | 36008 ft | 521 kts | 281° |
| 2026-04-30 10:47 | 50.51416 | -8.84920 | 36046 ft | 521 kts | 280° |
| 2026-04-30 10:48 | 50.53279 | -8.95958 | 35992 ft | 523 kts | 280° |
| 2026-04-30 10:48 | 50.55136 | -9.07027 | 36002 ft | 524 kts | 280° |
| 2026-04-30 10:49 | 50.56986 | -9.18120 | 36001 ft | 524 kts | 280° |
| 2026-04-30 10:49 | 50.58824 | -9.29213 | 36002 ft | 524 kts | 280° |
| 2026-04-30 10:50 | 50.60650 | -9.40311 | 36003 ft | 524 kts | 280° |
| 2026-04-30 10:50 | 50.62454 | -9.51347 | 35998 ft | 524 kts | 280° |
| 2026-04-30 10:51 | 50.64259 | -9.62464 | 35999 ft | 524 kts | 280° |
| 2026-04-30 10:51 | 50.66055 | -9.73595 | 35998 ft | 524 kts | 280° |
| 2026-04-30 10:52 | 50.67549 | -9.82911 | 35996 ft | 524 kts | 280° |
| 2026-04-30 10:52 | 50.69613 | -9.95871 | 35993 ft | 524 kts | 280° |
| 2026-04-30 10:53 | 50.71375 | -10.07013 | 35993 ft | 524 kts | 279° |
| 2026-04-30 10:53 | 50.72831 | -10.16283 | 35993 ft | 524 kts | 279° |
| 2026-04-30 10:54 | 50.74574 | -10.27448 | 35991 ft | 524 kts | 279° |
| 2026-04-30 10:54 | 50.76306 | -10.38616 | 35999 ft | 524 kts | 279° |
| 2026-04-30 10:55 | 50.78028 | -10.49800 | 35989 ft | 524 kts | 279° |
| 2026-04-30 10:55 | 50.79743 | -10.61012 | 35986 ft | 525 kts | 279° |
| 2026-04-30 10:56 | 50.81447 | -10.72235 | 35987 ft | 524 kts | 279° |
| 2026-04-30 10:56 | 50.83139 | -10.83451 | 35984 ft | 524 kts | 279° |
| 2026-04-30 10:57 | 50.84823 | -10.94703 | 35987 ft | 526 kts | 280° |
| 2026-04-30 10:57 | 50.86489 | -11.05912 | 35983 ft | 526 kts | 279° |
| 2026-04-30 10:58 | 50.88158 | -11.17212 | 35983 ft | 526 kts | 279° |
| 2026-04-30 10:58 | 50.89812 | -11.28504 | 35987 ft | 526 kts | 279° |
| 2026-04-30 10:59 | 50.91456 | -11.39807 | 35990 ft | 526 kts | 280° |
| 2026-04-30 10:59 | 50.93087 | -11.51101 | 35984 ft | 526 kts | 280° |
| 2026-04-30 11:00 | 50.94706 | -11.62400 | 35981 ft | 526 kts | 280° |
| 2026-04-30 11:00 | 50.96317 | -11.73723 | 35985 ft | 526 kts | 280° |
| 2026-04-30 11:01 | 50.97914 | -11.85031 | 35973 ft | 526 kts | 280° |
| 2026-04-30 11:01 | 50.99489 | -11.96386 | 35980 ft | 526 kts | 278° |
| 2026-04-30 11:02 | 51.00078 | -12.07879 | 35979 ft | 522 kts | 269° |
| 2026-04-30 11:02 | 51.00206 | -12.19331 | 35985 ft | 522 kts | 268° |
| 2026-04-30 11:03 | 51.00251 | -12.30853 | 35984 ft | 522 kts | 267° |
| 2026-04-30 11:04 | 51.00317 | -12.48135 | 35984 ft | 521 kts | 268° |
| 2026-04-30 11:04 | 51.00361 | -12.59647 | 35983 ft | 521 kts | 268° |
| 2026-04-30 11:05 | 51.00396 | -12.71168 | 35985 ft | 521 kts | 268° |
| 2026-04-30 11:05 | 51.00419 | -12.82677 | 35983 ft | 521 kts | 268° |
| 2026-04-30 11:06 | 51.00430 | -12.94183 | 35997 ft | 521 kts | 269° |
| 2026-04-30 11:06 | 51.00430 | -13.05690 | 35996 ft | 521 kts | 268° |
| 2026-04-30 11:07 | 51.00419 | -13.17198 | 35993 ft | 521 kts | 268° |
| 2026-04-30 11:07 | 51.00397 | -13.28639 | 36220 ft | 521 kts | 268° |
| 2026-04-30 11:07 | 51.00381 | -13.34388 | 36521 ft | 520 kts | 269° |
| 2026-04-30 11:08 | 51.00363 | -13.40126 | 36777 ft | 519 kts | 269° |
| 2026-04-30 11:08 | 51.00342 | -13.45862 | 37003 ft | 519 kts | 269° |
| 2026-04-30 11:08 | 51.00318 | -13.51593 | 37238 ft | 518 kts | 269° |
| 2026-04-30 11:08 | 51.00291 | -13.57306 | 37485 ft | 518 kts | 269° |
| 2026-04-30 11:09 | 51.00262 | -13.63020 | 37718 ft | 517 kts | 269° |
| 2026-04-30 11:09 | 51.00230 | -13.68734 | 37928 ft | 517 kts | 269° |
| 2026-04-30 11:09 | 51.00195 | -13.74455 | 38008 ft | 518 kts | 269° |
| 2026-04-30 11:10 | 51.00117 | -13.85847 | 38009 ft | 511 kts | 269° |
| 2026-04-30 11:10 | 51.00030 | -13.97071 | 38012 ft | 507 kts | 269° |
| 2026-04-30 11:11 | 50.99982 | -14.08271 | 38020 ft | 507 kts | 270° |
| 2026-04-30 11:11 | 51.00037 | -14.19457 | 38015 ft | 507 kts | 270° |
| 2026-04-30 11:12 | 51.00087 | -14.30598 | 38023 ft | 507 kts | 270° |
| 2026-04-30 11:12 | 51.00109 | -14.41792 | 38017 ft | 507 kts | 270° |
| 2026-04-30 11:13 | 51.00112 | -14.52980 | 38022 ft | 507 kts | 270° |
| 2026-04-30 11:13 | 51.00103 | -14.64171 | 38022 ft | 507 kts | 270° |
| 2026-04-30 11:14 | 51.00083 | -14.75355 | 38026 ft | 507 kts | 269° |
| 2026-04-30 11:14 | 51.00054 | -14.86471 | 38027 ft | 507 kts | 269° |
| 2026-04-30 11:15 | 51.00014 | -14.97563 | 38032 ft | 507 kts | 269° |
| 2026-04-30 11:15 | 51.00072 | -15.08760 | 38034 ft | 507 kts | 272° |
| 2026-04-30 11:16 | 51.00344 | -15.19945 | 38036 ft | 507 kts | 272° |
| 2026-04-30 11:16 | 51.00612 | -15.31125 | 38039 ft | 507 kts | 272° |
| 2026-04-30 11:17 | 51.00834 | -15.42280 | 38038 ft | 505 kts | 272° |
| 2026-04-30 11:17 | 51.01027 | -15.53431 | 38041 ft | 504 kts | 272° |
| 2026-04-30 11:18 | 51.01204 | -15.64483 | 38049 ft | 504 kts | 271° |
| 2026-04-30 11:18 | 51.01456 | -15.81186 | 38048 ft | 504 kts | 272° |
| 2026-04-30 11:19 | 51.01610 | -15.92297 | 38056 ft | 503 kts | 271° |
| 2026-04-30 11:19 | 51.01754 | -16.03390 | 38056 ft | 502 kts | 271° |
| 2026-04-30 11:20 | 51.01888 | -16.14488 | 38065 ft | 502 kts | 271° |
| 2026-04-30 11:20 | 51.02011 | -16.25588 | 38064 ft | 502 kts | 271° |
| 2026-04-30 11:21 | 51.02123 | -16.36668 | 38067 ft | 501 kts | 272° |
| 2026-04-30 11:21 | 51.02224 | -16.47651 | 38077 ft | 501 kts | 272° |
| 2026-04-30 11:22 | 51.02316 | -16.58716 | 38077 ft | 500 kts | 272° |
| 2026-04-30 11:22 | 51.02396 | -16.69759 | 38083 ft | 501 kts | 272° |
| 2026-04-30 11:23 | 51.02467 | -16.80812 | 38081 ft | 499 kts | 272° |
| 2026-04-30 11:24 | 51.02552 | -16.97301 | 38088 ft | 497 kts | 272° |
| 2026-04-30 11:24 | 51.02596 | -17.08266 | 38096 ft | 496 kts | 272° |
| 2026-04-30 11:25 | 51.02644 | -17.24742 | 38096 ft | 497 kts | 272° |
| 2026-04-30 11:26 | 51.02671 | -17.46726 | 38113 ft | 497 kts | 271° |
| 2026-04-30 11:26 | 51.02669 | -17.57717 | 38113 ft | 498 kts | 271° |
| 2026-04-30 11:27 | 51.02656 | -17.68627 | 38116 ft | 497 kts | 272° |
| 2026-04-30 11:27 | 51.02634 | -17.79621 | 38120 ft | 497 kts | 271° |
| 2026-04-30 11:28 | 51.02580 | -17.96002 | 38127 ft | 493 kts | 272° |
| 2026-04-30 11:29 | 51.02532 | -18.06884 | 38132 ft | 492 kts | 271° |
| 2026-04-30 11:29 | 51.02442 | -18.23203 | 38133 ft | 492 kts | 271° |
| 2026-04-30 11:30 | 51.02329 | -18.39479 | 38141 ft | 490 kts | 271° |
| 2026-04-30 11:31 | 51.02241 | -18.50285 | 38145 ft | 489 kts | 271° |
| 2026-04-30 11:31 | 51.02144 | -18.61089 | 38150 ft | 489 kts | 271° |
| 2026-04-30 11:32 | 51.02037 | -18.71824 | 38152 ft | 488 kts | 271° |
| 2026-04-30 11:32 | 51.01920 | -18.82592 | 38151 ft | 486 kts | 271° |
| 2026-04-30 11:33 | 51.01727 | -18.98652 | 38159 ft | 484 kts | 271° |
| 2026-04-30 11:33 | 51.01587 | -19.09336 | 38165 ft | 484 kts | 271° |
| 2026-04-30 11:34 | 51.01437 | -19.20022 | 38165 ft | 484 kts | 271° |
| 2026-04-30 11:34 | 51.01277 | -19.30703 | 38175 ft | 483 kts | 271° |
| 2026-04-30 11:35 | 51.01107 | -19.41373 | 38175 ft | 483 kts | 271° |
| 2026-04-30 11:35 | 51.00928 | -19.52035 | 38175 ft | 483 kts | 271° |
| 2026-04-30 11:36 | 51.00740 | -19.62691 | 38177 ft | 483 kts | 271° |
| 2026-04-30 11:36 | 51.00541 | -19.73371 | 38182 ft | 483 kts | 271° |
| 2026-04-30 11:37 | 51.00334 | -19.83958 | 38186 ft | 483 kts | 270° |
| 2026-04-30 11:37 | 51.00116 | -19.94612 | 38187 ft | 483 kts | 270° |
| 2026-04-30 11:38 | 50.99842 | -20.05288 | 38191 ft | 483 kts | 268° |
| 2026-04-30 11:38 | 50.99225 | -20.15926 | 38191 ft | 484 kts | 266° |
| 2026-04-30 11:39 | 50.98530 | -20.26561 | 38195 ft | 484 kts | 266° |
| 2026-04-30 11:39 | 50.97874 | -20.37144 | 38197 ft | 479 kts | 266° |
| 2026-04-30 11:40 | 50.97246 | -20.47654 | 38202 ft | 477 kts | 266° |
| 2026-04-30 11:40 | 50.96618 | -20.58143 | 38201 ft | 478 kts | 266° |
| 2026-04-30 11:41 | 50.95980 | -20.68627 | 38207 ft | 478 kts | 266° |
| 2026-04-30 11:41 | 50.95336 | -20.79031 | 38201 ft | 476 kts | 266° |
| 2026-04-30 11:42 | 50.94679 | -20.89462 | 38199 ft | 475 kts | 266° |
| 2026-04-30 11:42 | 50.94014 | -20.99879 | 38203 ft | 475 kts | 266° |
| 2026-04-30 11:43 | 50.93340 | -21.10295 | 38207 ft | 475 kts | 265° |
| 2026-04-30 11:43 | 50.92773 | -21.18942 | 38216 ft | 475 kts | 265° |
| 2026-04-30 11:44 | 50.92084 | -21.29312 | 38207 ft | 473 kts | 265° |
| 2026-04-30 11:44 | 50.91386 | -21.39675 | 38230 ft | 472 kts | 265° |
| 2026-04-30 11:45 | 50.90680 | -21.50024 | 38225 ft | 472 kts | 265° |
| 2026-04-30 11:45 | 50.89964 | -21.60376 | 38228 ft | 472 kts | 265° |
| 2026-04-30 11:46 | 50.89241 | -21.70709 | 38228 ft | 472 kts | 265° |
| 2026-04-30 11:46 | 50.88509 | -21.81019 | 38228 ft | 470 kts | 265° |
| 2026-04-30 11:47 | 50.87770 | -21.91303 | 38230 ft | 470 kts | 265° |
| 2026-04-30 11:47 | 50.87023 | -22.01581 | 38233 ft | 470 kts | 265° |
| 2026-04-30 11:48 | 50.86265 | -22.11871 | 38222 ft | 470 kts | 265° |
| 2026-04-30 11:48 | 50.85505 | -22.22075 | 38231 ft | 469 kts | 264° |
| 2026-04-30 11:49 | 50.84734 | -22.32292 | 38242 ft | 467 kts | 264° |
| 2026-04-30 11:49 | 50.83954 | -22.42502 | 38240 ft | 466 kts | 264° |
| 2026-04-30 11:50 | 50.83167 | -22.52695 | 38246 ft | 466 kts | 264° |
| 2026-04-30 11:50 | 50.82371 | -22.62889 | 38238 ft | 466 kts | 264° |
| 2026-04-30 11:51 | 50.81568 | -22.73044 | 38249 ft | 465 kts | 264° |
| 2026-04-30 11:51 | 50.80759 | -22.83173 | 38247 ft | 464 kts | 264° |
| 2026-04-30 11:52 | 50.79946 | -22.93237 | 38243 ft | 464 kts | 264° |
| 2026-04-30 11:52 | 50.79120 | -23.03349 | 38251 ft | 464 kts | 264° |
| 2026-04-30 11:53 | 50.78283 | -23.13481 | 38245 ft | 464 kts | 264° |
| 2026-04-30 11:53 | 50.77437 | -23.23604 | 38252 ft | 464 kts | 264° |
| 2026-04-30 11:54 | 50.76585 | -23.33707 | 38255 ft | 464 kts | 264° |
| 2026-04-30 11:54 | 50.75723 | -23.43813 | 38251 ft | 464 kts | 263° |
| 2026-04-30 11:55 | 50.74852 | -23.53924 | 38256 ft | 464 kts | 263° |
| 2026-04-30 11:55 | 50.73973 | -23.64010 | 38256 ft | 464 kts | 263° |
| 2026-04-30 11:56 | 50.73087 | -23.74088 | 38260 ft | 463 kts | 263° |
| 2026-04-30 11:56 | 50.72198 | -23.84095 | 38261 ft | 463 kts | 263° |
| 2026-04-30 11:57 | 50.71294 | -23.94157 | 38262 ft | 463 kts | 263° |
| 2026-04-30 11:57 | 50.70382 | -24.04226 | 38264 ft | 463 kts | 263° |
| 2026-04-30 11:58 | 50.69460 | -24.14289 | 38263 ft | 463 kts | 263° |
| 2026-04-30 11:58 | 50.68531 | -24.24341 | 38261 ft | 463 kts | 263° |
| 2026-04-30 11:59 | 50.67593 | -24.34387 | 38266 ft | 463 kts | 263° |
| 2026-04-30 11:59 | 50.66647 | -24.44431 | 38269 ft | 463 kts | 263° |
| 2026-04-30 12:00 | 50.65691 | -24.54485 | 38271 ft | 463 kts | 263° |
| 2026-04-30 12:00 | 50.64732 | -24.64468 | 38273 ft | 463 kts | 263° |
| 2026-04-30 12:01 | 50.63759 | -24.74508 | 38271 ft | 464 kts | 263° |
| 2026-04-30 12:01 | 50.62776 | -24.84551 | 38274 ft | 464 kts | 263° |
| 2026-04-30 12:02 | 50.61785 | -24.94586 | 38275 ft | 464 kts | 263° |
| 2026-04-30 12:02 | 50.60784 | -25.04636 | 38276 ft | 464 kts | 262° |
| 2026-04-30 12:03 | 50.59276 | -25.19606 | 38280 ft | 463 kts | 262° |
| 2026-04-30 12:04 | 50.58256 | -25.29618 | 38279 ft | 463 kts | 262° |
| 2026-04-30 12:04 | 50.57227 | -25.39627 | 38280 ft | 463 kts | 262° |
| 2026-04-30 12:05 | 50.56190 | -25.49630 | 38278 ft | 463 kts | 262° |
| 2026-04-30 12:05 | 50.55145 | -25.59621 | 38282 ft | 463 kts | 262° |
| 2026-04-30 12:06 | 50.54090 | -25.69617 | 38282 ft | 463 kts | 262° |
| 2026-04-30 12:06 | 50.53028 | -25.79598 | 38283 ft | 463 kts | 262° |
| 2026-04-30 12:07 | 50.51957 | -25.89584 | 38289 ft | 463 kts | 262° |
| 2026-04-30 12:07 | 50.50885 | -25.99497 | 38287 ft | 463 kts | 262° |
| 2026-04-30 12:08 | 50.49797 | -26.09466 | 38289 ft | 463 kts | 262° |
| 2026-04-30 12:08 | 50.48701 | -26.19433 | 38287 ft | 463 kts | 262° |
| 2026-04-30 12:09 | 50.47595 | -26.29406 | 38288 ft | 463 kts | 262° |
| 2026-04-30 12:09 | 50.46479 | -26.39386 | 38300 ft | 463 kts | 262° |
| 2026-04-30 12:10 | 50.45357 | -26.49340 | 38297 ft | 463 kts | 261° |
| 2026-04-30 12:10 | 50.44233 | -26.59227 | 38296 ft | 463 kts | 261° |
| 2026-04-30 12:11 | 50.43094 | -26.69178 | 38300 ft | 463 kts | 261° |
| 2026-04-30 12:11 | 50.41946 | -26.79116 | 38304 ft | 463 kts | 261° |
| 2026-04-30 12:12 | 50.40789 | -26.89064 | 38304 ft | 463 kts | 261° |
| 2026-04-30 12:12 | 50.39624 | -26.98996 | 38303 ft | 463 kts | 261° |
| 2026-04-30 12:13 | 50.38450 | -27.08932 | 38299 ft | 463 kts | 261° |
| 2026-04-30 12:13 | 50.37269 | -27.18856 | 38303 ft | 463 kts | 261° |
| 2026-04-30 12:14 | 50.36079 | -27.28773 | 38299 ft | 463 kts | 261° |
| 2026-04-30 12:14 | 50.34879 | -27.38697 | 38304 ft | 463 kts | 261° |
| 2026-04-30 12:15 | 50.33671 | -27.48613 | 38305 ft | 463 kts | 261° |
| 2026-04-30 12:15 | 50.32456 | -27.58513 | 38304 ft | 463 kts | 261° |
| 2026-04-30 12:16 | 50.31240 | -27.68351 | 38307 ft | 463 kts | 260° |
| 2026-04-30 12:16 | 50.30007 | -27.78254 | 38302 ft | 463 kts | 260° |
| 2026-04-30 12:17 | 50.28142 | -27.93089 | 38306 ft | 463 kts | 260° |
| 2026-04-30 12:17 | 50.26889 | -28.02972 | 38309 ft | 463 kts | 260° |
| 2026-04-30 12:18 | 50.25628 | -28.12844 | 38311 ft | 463 kts | 261° |
| 2026-04-30 12:18 | 50.24357 | -28.22718 | 38310 ft | 464 kts | 261° |
| 2026-04-30 12:19 | 50.23080 | -28.32575 | 38316 ft | 463 kts | 260° |
| 2026-04-30 12:19 | 50.21795 | -28.42423 | 38315 ft | 462 kts | 260° |
| 2026-04-30 12:20 | 50.20503 | -28.52255 | 38319 ft | 463 kts | 260° |
| 2026-04-30 12:20 | 50.19204 | -28.62074 | 38318 ft | 462 kts | 259° |
| 2026-04-30 12:21 | 50.17893 | -28.71917 | 38312 ft | 462 kts | 259° |
| 2026-04-30 12:21 | 50.16586 | -28.81660 | 38315 ft | 462 kts | 259° |
| 2026-04-30 12:22 | 50.15263 | -28.91453 | 38320 ft | 461 kts | 260° |
| 2026-04-30 12:22 | 50.13932 | -29.01243 | 38323 ft | 461 kts | 259° |
| 2026-04-30 12:23 | 50.12594 | -29.11017 | 38325 ft | 462 kts | 259° |
| 2026-04-30 12:23 | 50.11247 | -29.20793 | 38320 ft | 461 kts | 259° |
| 2026-04-30 12:24 | 50.09890 | -29.30577 | 38326 ft | 461 kts | 259° |
| 2026-04-30 12:24 | 50.08526 | -29.40340 | 38323 ft | 462 kts | 259° |
| 2026-04-30 12:25 | 50.07155 | -29.50098 | 38324 ft | 461 kts | 259° |
| 2026-04-30 12:25 | 50.05772 | -29.59872 | 38324 ft | 462 kts | 259° |
| 2026-04-30 12:26 | 50.04383 | -29.69624 | 38331 ft | 463 kts | 259° |
| 2026-04-30 12:26 | 50.02994 | -29.79315 | 38331 ft | 461 kts | 259° |
| 2026-04-30 12:27 | 50.01586 | -29.89079 | 38332 ft | 462 kts | 259° |
| 2026-04-30 12:27 | 50.00218 | -29.98837 | 38335 ft | 462 kts | 262° |
| 2026-04-30 12:28 | 49.99496 | -30.08744 | 38333 ft | 461 kts | 266° |
| 2026-04-30 12:28 | 49.98923 | -30.18699 | 38334 ft | 463 kts | 266° |
| 2026-04-30 12:29 | 49.98367 | -30.28668 | 38339 ft | 463 kts | 266° |
| 2026-04-30 12:29 | 49.97795 | -30.38641 | 38339 ft | 463 kts | 266° |
| 2026-04-30 12:30 | 49.97208 | -30.48592 | 38342 ft | 464 kts | 266° |
| 2026-04-30 12:30 | 49.96609 | -30.58567 | 38340 ft | 463 kts | 265° |
| 2026-04-30 12:31 | 49.96104 | -30.66843 | 38339 ft | 464 kts | 265° |
| 2026-04-30 12:31 | 49.95385 | -30.78486 | 38345 ft | 463 kts | 265° |
| 2026-04-30 12:32 | 49.94867 | -30.86754 | 38344 ft | 464 kts | 265° |
| 2026-04-30 12:32 | 49.94236 | -30.96704 | 38346 ft | 462 kts | 265° |
| 2026-04-30 12:33 | 49.93596 | -31.06668 | 38345 ft | 464 kts | 265° |
| 2026-04-30 12:33 | 49.92947 | -31.16628 | 38349 ft | 464 kts | 265° |
| 2026-04-30 12:34 | 49.92290 | -31.26574 | 38352 ft | 467 kts | 265° |
| 2026-04-30 12:34 | 49.91620 | -31.36596 | 38358 ft | 467 kts | 265° |
| 2026-04-30 12:35 | 49.90939 | -31.46630 | 38356 ft | 467 kts | 265° |
| 2026-04-30 12:35 | 49.90247 | -31.56719 | 38356 ft | 475 kts | 265° |
| 2026-04-30 12:36 | 49.89534 | -31.66979 | 38359 ft | 479 kts | 264° |
| 2026-04-30 12:36 | 49.88809 | -31.77264 | 38360 ft | 479 kts | 264° |
| 2026-04-30 12:37 | 49.88075 | -31.87538 | 38361 ft | 479 kts | 264° |
| 2026-04-30 12:37 | 49.87337 | -31.97750 | 38360 ft | 479 kts | 264° |
| 2026-04-30 12:38 | 49.86585 | -32.08023 | 38363 ft | 479 kts | 264° |
| 2026-04-30 12:38 | 49.85824 | -32.18292 | 38362 ft | 479 kts | 264° |
| 2026-04-30 12:39 | 49.85054 | -32.28561 | 38359 ft | 480 kts | 264° |
| 2026-04-30 12:39 | 49.84272 | -32.38868 | 38364 ft | 483 kts | 264° |
| 2026-04-30 12:40 | 49.83483 | -32.49142 | 38371 ft | 483 kts | 264° |
| 2026-04-30 12:40 | 49.82679 | -32.59480 | 38370 ft | 483 kts | 263° |
| 2026-04-30 12:41 | 49.81866 | -32.69815 | 38372 ft | 483 kts | 263° |
| 2026-04-30 12:41 | 49.81043 | -32.80154 | 38372 ft | 483 kts | 263° |
| 2026-04-30 12:42 | 49.80213 | -32.90470 | 38372 ft | 483 kts | 263° |
| 2026-04-30 12:42 | 49.79373 | -33.00798 | 38371 ft | 483 kts | 263° |
| 2026-04-30 12:43 | 49.78524 | -33.11108 | 38375 ft | 483 kts | 263° |
| 2026-04-30 12:43 | 49.77665 | -33.21426 | 38374 ft | 484 kts | 263° |
| 2026-04-30 12:44 | 49.76796 | -33.31752 | 38374 ft | 483 kts | 263° |
| 2026-04-30 12:44 | 49.75925 | -33.41992 | 38376 ft | 485 kts | 263° |
| 2026-04-30 12:45 | 49.75034 | -33.52361 | 38379 ft | 487 kts | 263° |
| 2026-04-30 12:45 | 49.74131 | -33.62752 | 38380 ft | 487 kts | 262° |
| 2026-04-30 12:46 | 49.73219 | -33.73131 | 38379 ft | 487 kts | 262° |
| 2026-04-30 12:46 | 49.72298 | -33.83511 | 38381 ft | 487 kts | 262° |
| 2026-04-30 12:47 | 49.71367 | -33.93892 | 38383 ft | 487 kts | 262° |
| 2026-04-30 12:47 | 49.70427 | -34.04266 | 38383 ft | 487 kts | 262° |
| 2026-04-30 12:48 | 49.69478 | -34.14631 | 38387 ft | 487 kts | 262° |
| 2026-04-30 12:48 | 49.68519 | -34.25004 | 38388 ft | 487 kts | 262° |
| 2026-04-30 12:49 | 49.67551 | -34.35359 | 38390 ft | 487 kts | 262° |
| 2026-04-30 12:49 | 49.66575 | -34.45713 | 38391 ft | 487 kts | 262° |
| 2026-04-30 12:50 | 49.65593 | -34.56017 | 38390 ft | 491 kts | 262° |
| 2026-04-30 12:50 | 49.64589 | -34.66461 | 38386 ft | 493 kts | 262° |
| 2026-04-30 12:51 | 49.63570 | -34.76948 | 38392 ft | 493 kts | 261° |
| 2026-04-30 12:51 | 49.62544 | -34.87413 | 38392 ft | 494 kts | 261° |
| 2026-04-30 12:52 | 49.61509 | -34.97864 | 38389 ft | 492 kts | 261° |
| 2026-04-30 12:52 | 49.60466 | -35.08297 | 38392 ft | 491 kts | 261° |
| 2026-04-30 12:53 | 49.59416 | -35.18701 | 38396 ft | 491 kts | 261° |
| 2026-04-30 12:53 | 49.58357 | -35.29098 | 38395 ft | 491 kts | 261° |
| 2026-04-30 12:54 | 49.57289 | -35.39495 | 38402 ft | 491 kts | 261° |
| 2026-04-30 12:54 | 49.56210 | -35.49899 | 38399 ft | 492 kts | 261° |
| 2026-04-30 12:55 | 49.55121 | -35.60303 | 38394 ft | 492 kts | 261° |
| 2026-04-30 12:55 | 49.54023 | -35.70695 | 38396 ft | 497 kts | 261° |
| 2026-04-30 12:56 | 49.52902 | -35.81214 | 38398 ft | 499 kts | 261° |
| 2026-04-30 12:56 | 49.51772 | -35.91731 | 38397 ft | 498 kts | 260° |
| 2026-04-30 12:57 | 49.50629 | -36.02269 | 38399 ft | 498 kts | 260° |
| 2026-04-30 12:57 | 49.49478 | -36.12788 | 38401 ft | 499 kts | 260° |
| 2026-04-30 12:58 | 49.48317 | -36.23306 | 38401 ft | 499 kts | 260° |
| 2026-04-30 12:58 | 49.47146 | -36.33821 | 38401 ft | 499 kts | 260° |
| 2026-04-30 12:59 | 49.45965 | -36.44340 | 38400 ft | 499 kts | 260° |
| 2026-04-30 12:59 | 49.44776 | -36.54832 | 38404 ft | 498 kts | 259° |
| 2026-04-30 13:00 | 49.43580 | -36.65304 | 38404 ft | 498 kts | 259° |
| 2026-04-30 13:00 | 49.42369 | -36.75820 | 38402 ft | 502 kts | 259° |
| 2026-04-30 13:01 | 49.41138 | -36.86415 | 38401 ft | 505 kts | 259° |
| 2026-04-30 13:01 | 49.39907 | -36.96928 | 38402 ft | 504 kts | 259° |
| 2026-04-30 13:02 | 49.38654 | -37.07534 | 38403 ft | 503 kts | 259° |
| 2026-04-30 13:02 | 49.37394 | -37.18122 | 38407 ft | 504 kts | 259° |
| 2026-04-30 13:03 | 49.36124 | -37.28696 | 38409 ft | 505 kts | 259° |
| 2026-04-30 13:03 | 49.34846 | -37.39261 | 38408 ft | 503 kts | 259° |
| 2026-04-30 13:04 | 49.33557 | -37.49830 | 38404 ft | 502 kts | 259° |
| 2026-04-30 13:04 | 49.32261 | -37.60366 | 38406 ft | 504 kts | 259° |
| 2026-04-30 13:05 | 49.30955 | -37.70900 | 38406 ft | 503 kts | 259° |
| 2026-04-30 13:06 | 49.28975 | -37.86723 | 38409 ft | 505 kts | 258° |
| 2026-04-30 13:06 | 49.27649 | -37.97214 | 38407 ft | 505 kts | 258° |
| 2026-04-30 13:07 | 49.26303 | -38.07782 | 38407 ft | 505 kts | 258° |
| 2026-04-30 13:07 | 49.24949 | -38.18332 | 38412 ft | 506 kts | 258° |
| 2026-04-30 13:08 | 49.23584 | -38.28887 | 38413 ft | 506 kts | 258° |
| 2026-04-30 13:08 | 49.22211 | -38.39431 | 38409 ft | 505 kts | 258° |
| 2026-04-30 13:09 | 49.20825 | -38.49984 | 38410 ft | 505 kts | 258° |
| 2026-04-30 13:09 | 49.19431 | -38.60520 | 38414 ft | 506 kts | 258° |
| 2026-04-30 13:10 | 49.18029 | -38.71047 | 38415 ft | 506 kts | 258° |
| 2026-04-30 13:10 | 49.16616 | -38.81569 | 38411 ft | 505 kts | 258° |
| 2026-04-30 13:11 | 49.15195 | -38.92083 | 38410 ft | 505 kts | 258° |
| 2026-04-30 13:11 | 49.13763 | -39.02592 | 38416 ft | 506 kts | 258° |
| 2026-04-30 13:12 | 49.12332 | -39.13021 | 38413 ft | 506 kts | 257° |
| 2026-04-30 13:12 | 49.10882 | -39.23519 | 38412 ft | 505 kts | 257° |
| 2026-04-30 13:13 | 49.08688 | -39.39259 | 38410 ft | 505 kts | 257° |
| 2026-04-30 13:14 | 49.06470 | -39.55001 | 38414 ft | 506 kts | 257° |
| 2026-04-30 13:14 | 49.04231 | -39.70723 | 38412 ft | 506 kts | 257° |
| 2026-04-30 13:15 | 49.01975 | -39.86408 | 38411 ft | 506 kts | 257° |
| 2026-04-30 13:16 | 49.00470 | -39.96806 | 38414 ft | 506 kts | 257° |
| 2026-04-30 13:16 | 48.99576 | -40.07437 | 38413 ft | 506 kts | 264° |
| 2026-04-30 13:17 | 48.98657 | -40.23458 | 38416 ft | 506 kts | 265° |
| 2026-04-30 13:18 | 48.97752 | -40.39487 | 38413 ft | 506 kts | 264° |
| 2026-04-30 13:18 | 48.96803 | -40.55502 | 38416 ft | 506 kts | 264° |
| 2026-04-30 13:19 | 48.96156 | -40.66186 | 38422 ft | 507 kts | 264° |
| 2026-04-30 13:19 | 48.95610 | -40.75054 | 38418 ft | 507 kts | 264° |
| 2026-04-30 13:20 | 48.94945 | -40.85731 | 38422 ft | 507 kts | 264° |
| 2026-04-30 13:20 | 48.94270 | -40.96413 | 38422 ft | 507 kts | 264° |
| 2026-04-30 13:21 | 48.93585 | -41.07093 | 38419 ft | 507 kts | 264° |
| 2026-04-30 13:22 | 48.92539 | -41.23095 | 38424 ft | 507 kts | 264° |
| 2026-04-30 13:22 | 48.91469 | -41.39122 | 38422 ft | 507 kts | 264° |
| 2026-04-30 13:23 | 48.90382 | -41.55069 | 38427 ft | 507 kts | 264° |
| 2026-04-30 13:24 | 48.88900 | -41.76298 | 38422 ft | 508 kts | 264° |
| 2026-04-30 13:25 | 48.87363 | -41.97745 | 38428 ft | 508 kts | 263° |
| 2026-04-30 13:26 | 48.85394 | -42.24413 | 38428 ft | 508 kts | 263° |
| 2026-04-30 13:28 | 48.83367 | -42.51019 | 38432 ft | 509 kts | 263° |
| 2026-04-30 13:28 | 48.82117 | -42.67029 | 38427 ft | 509 kts | 263° |
| 2026-04-30 13:29 | 48.80414 | -42.88387 | 38427 ft | 510 kts | 263° |
| 2026-04-30 13:31 | 48.78235 | -43.15000 | 38433 ft | 510 kts | 263° |
| 2026-04-30 13:32 | 48.75985 | -43.41693 | 38435 ft | 511 kts | 263° |
| 2026-04-30 13:33 | 48.74140 | -43.63046 | 38433 ft | 511 kts | 263° |
| 2026-04-30 13:34 | 48.72731 | -43.79042 | 38438 ft | 511 kts | 263° |
| 2026-04-30 13:35 | 48.70821 | -44.00325 | 38439 ft | 512 kts | 263° |
| 2026-04-30 13:36 | 48.68862 | -44.21698 | 38434 ft | 512 kts | 262° |
| 2026-04-30 13:36 | 48.67370 | -44.37681 | 38440 ft | 511 kts | 262° |
| 2026-04-30 13:37 | 48.65855 | -44.53663 | 38439 ft | 511 kts | 262° |
| 2026-04-30 13:38 | 48.64318 | -44.69632 | 38441 ft | 511 kts | 262° |
| 2026-04-30 13:39 | 48.62244 | -44.90822 | 38439 ft | 510 kts | 262° |
| 2026-04-30 13:40 | 48.60653 | -45.06794 | 38445 ft | 510 kts | 262° |
| 2026-04-30 13:40 | 48.59590 | -45.17338 | 38439 ft | 510 kts | 262° |
| 2026-04-30 13:41 | 48.58513 | -45.27932 | 38445 ft | 510 kts | 262° |
| 2026-04-30 13:41 | 48.57425 | -45.38518 | 38434 ft | 509 kts | 262° |
| 2026-04-30 13:42 | 48.56329 | -45.49089 | 38443 ft | 509 kts | 262° |
| 2026-04-30 13:42 | 48.54668 | -45.64930 | 38444 ft | 509 kts | 262° |
| 2026-04-30 13:43 | 48.53549 | -45.75481 | 38442 ft | 509 kts | 261° |
| 2026-04-30 13:43 | 48.52429 | -45.85947 | 38441 ft | 508 kts | 261° |
| 2026-04-30 13:44 | 48.51293 | -45.96467 | 38441 ft | 508 kts | 261° |
| 2026-04-30 13:44 | 48.50148 | -46.06979 | 38442 ft | 508 kts | 261° |
| 2026-04-30 13:45 | 48.48413 | -46.22733 | 38444 ft | 507 kts | 261° |
| 2026-04-30 13:46 | 48.47246 | -46.33214 | 38436 ft | 507 kts | 261° |
| 2026-04-30 13:46 | 48.46071 | -46.43672 | 38439 ft | 506 kts | 261° |
| 2026-04-30 13:47 | 48.44886 | -46.54133 | 38668 ft | 506 kts | 261° |
| 2026-04-30 13:47 | 48.44292 | -46.59347 | 38946 ft | 505 kts | 261° |
| 2026-04-30 13:47 | 48.43697 | -46.64550 | 39188 ft | 505 kts | 261° |
| 2026-04-30 13:47 | 48.43098 | -46.69759 | 39381 ft | 504 kts | 261° |
| 2026-04-30 13:48 | 48.42498 | -46.74954 | 39584 ft | 503 kts | 261° |
| 2026-04-30 13:48 | 48.41897 | -46.80143 | 39780 ft | 502 kts | 260° |
| 2026-04-30 13:48 | 48.41296 | -46.85310 | 39998 ft | 501 kts | 260° |
| 2026-04-30 13:48 | 48.40702 | -46.90392 | 40181 ft | 500 kts | 260° |
| 2026-04-30 13:49 | 48.40089 | -46.95620 | 40361 ft | 500 kts | 260° |
| 2026-04-30 13:49 | 48.38871 | -47.05939 | 40433 ft | 501 kts | 260° |
| 2026-04-30 13:50 | 48.37644 | -47.16253 | 40427 ft | 501 kts | 260° |
| 2026-04-30 13:50 | 48.35795 | -47.31640 | 40429 ft | 501 kts | 260° |
| 2026-04-30 13:51 | 48.34546 | -47.41933 | 40428 ft | 500 kts | 260° |
| 2026-04-30 13:51 | 48.33288 | -47.52213 | 40425 ft | 500 kts | 260° |
| 2026-04-30 13:52 | 48.32022 | -47.62488 | 40425 ft | 500 kts | 259° |
| 2026-04-30 13:52 | 48.30748 | -47.72744 | 40425 ft | 499 kts | 259° |
| 2026-04-30 13:53 | 48.29466 | -47.82993 | 40423 ft | 498 kts | 259° |
| 2026-04-30 13:53 | 48.28185 | -47.93148 | 40419 ft | 498 kts | 259° |
| 2026-04-30 13:54 | 48.26887 | -48.03365 | 40419 ft | 498 kts | 259° |
| 2026-04-30 13:54 | 48.25582 | -48.13564 | 40417 ft | 498 kts | 259° |
| 2026-04-30 13:55 | 48.24267 | -48.23756 | 40419 ft | 498 kts | 259° |
| 2026-04-30 13:55 | 48.22943 | -48.33948 | 40413 ft | 497 kts | 259° |
| 2026-04-30 13:56 | 48.21612 | -48.44121 | 40414 ft | 496 kts | 258° |
| 2026-04-30 13:56 | 48.20277 | -48.54252 | 40416 ft | 495 kts | 258° |
| 2026-04-30 13:57 | 48.18933 | -48.64381 | 40416 ft | 495 kts | 258° |
| 2026-04-30 13:57 | 48.17588 | -48.74440 | 40416 ft | 495 kts | 258° |
| 2026-04-30 13:58 | 48.15541 | -48.89618 | 40410 ft | 495 kts | 258° |
| 2026-04-30 13:59 | 48.14166 | -48.99721 | 40412 ft | 495 kts | 258° |
| 2026-04-30 13:59 | 48.12782 | -49.09821 | 40410 ft | 495 kts | 258° |
| 2026-04-30 14:00 | 48.11391 | -49.19905 | 40412 ft | 494 kts | 258° |
| 2026-04-30 14:00 | 48.09290 | -49.35007 | 40409 ft | 494 kts | 258° |
| 2026-04-30 14:01 | 48.07880 | -49.45052 | 40409 ft | 493 kts | 258° |
| 2026-04-30 14:01 | 48.06471 | -49.55028 | 40404 ft | 494 kts | 257° |
| 2026-04-30 14:02 | 48.05043 | -49.65069 | 40406 ft | 494 kts | 257° |
| 2026-04-30 14:02 | 48.03607 | -49.75095 | 40397 ft | 494 kts | 257° |
| 2026-04-30 14:03 | 48.02161 | -49.85130 | 40396 ft | 493 kts | 257° |
| 2026-04-30 14:03 | 48.00709 | -49.95140 | 40400 ft | 492 kts | 257° |
| 2026-04-30 14:04 | 47.98811 | -50.04916 | 40396 ft | 490 kts | 250° |
| 2026-04-30 14:04 | 47.96568 | -50.14453 | 40396 ft | 490 kts | 249° |
| 2026-04-30 14:05 | 47.94248 | -50.24008 | 40388 ft | 490 kts | 249° |
| 2026-04-30 14:05 | 47.91925 | -50.33543 | 40391 ft | 488 kts | 249° |
| 2026-04-30 14:06 | 47.88445 | -50.47815 | 40387 ft | 488 kts | 249° |
| 2026-04-30 14:07 | 47.84957 | -50.62060 | 40388 ft | 488 kts | 249° |
| 2026-04-30 14:08 | 47.81848 | -50.74675 | 40382 ft | 486 kts | 249° |
| 2026-04-30 14:08 | 47.78345 | -50.88805 | 40385 ft | 484 kts | 249° |
| 2026-04-30 14:09 | 47.76008 | -50.98178 | 40379 ft | 484 kts | 249° |
| 2026-04-30 14:10 | 47.72487 | -51.12231 | 40379 ft | 483 kts | 249° |
| 2026-04-30 14:10 | 47.70147 | -51.21524 | 40375 ft | 483 kts | 248° |
| 2026-04-30 14:11 | 47.67787 | -51.30856 | 40371 ft | 483 kts | 249° |
| 2026-04-30 14:11 | 47.65421 | -51.40175 | 40372 ft | 483 kts | 248° |
| 2026-04-30 14:12 | 47.63045 | -51.49493 | 40374 ft | 483 kts | 249° |
| 2026-04-30 14:12 | 47.60659 | -51.58813 | 40368 ft | 483 kts | 249° |
| 2026-04-30 14:13 | 47.58268 | -51.68113 | 40370 ft | 483 kts | 248° |
| 2026-04-30 14:13 | 47.55873 | -51.77394 | 40365 ft | 482 kts | 248° |
| 2026-04-30 14:14 | 47.53471 | -51.86665 | 40363 ft | 482 kts | 248° |
| 2026-04-30 14:14 | 47.50992 | -51.95885 | 40363 ft | 483 kts | 244° |
| 2026-04-30 14:15 | 47.47308 | -52.04146 | 40363 ft | 482 kts | 229° |
| 2026-04-30 14:15 | 47.42834 | -52.11429 | 40360 ft | 482 kts | 226° |
| 2026-04-30 14:16 | 47.38192 | -52.18592 | 40360 ft | 482 kts | 226° |
| 2026-04-30 14:16 | 47.33548 | -52.25747 | 40358 ft | 483 kts | 226° |
| 2026-04-30 14:17 | 47.28906 | -52.32937 | 40356 ft | 483 kts | 226° |
| 2026-04-30 14:17 | 47.24275 | -52.40118 | 40357 ft | 484 kts | 226° |
| 2026-04-30 14:18 | 47.19663 | -52.47253 | 40351 ft | 484 kts | 226° |
| 2026-04-30 14:18 | 47.12697 | -52.57990 | 40352 ft | 483 kts | 226° |
| 2026-04-30 14:19 | 47.05720 | -52.68699 | 40352 ft | 484 kts | 226° |
| 2026-04-30 14:20 | 47.01066 | -52.75817 | 40353 ft | 484 kts | 226° |
| 2026-04-30 14:20 | 46.94072 | -52.86480 | 40349 ft | 484 kts | 226° |
| 2026-04-30 14:21 | 46.89400 | -52.93579 | 40340 ft | 484 kts | 226° |
| 2026-04-30 14:22 | 46.82402 | -53.04176 | 40340 ft | 482 kts | 226° |
| 2026-04-30 14:22 | 46.75428 | -53.14694 | 40334 ft | 482 kts | 226° |
| 2026-04-30 14:23 | 46.66085 | -53.28721 | 40332 ft | 482 kts | 226° |
| 2026-04-30 14:24 | 46.59073 | -53.39200 | 40324 ft | 482 kts | 226° |
| 2026-04-30 14:25 | 46.49697 | -53.53147 | 40317 ft | 482 kts | 226° |
| 2026-04-30 14:26 | 46.42659 | -53.63568 | 40311 ft | 482 kts | 226° |
| 2026-04-30 14:27 | 46.35598 | -53.73983 | 40306 ft | 483 kts | 226° |
| 2026-04-30 14:27 | 46.30881 | -53.80916 | 40301 ft | 484 kts | 226° |
| 2026-04-30 14:28 | 46.23794 | -53.91301 | 40298 ft | 484 kts | 226° |
| 2026-04-30 14:28 | 46.19079 | -53.98186 | 40301 ft | 485 kts | 226° |
| 2026-04-30 14:29 | 46.10351 | -54.10888 | 40289 ft | 485 kts | 226° |
| 2026-04-30 14:31 | 45.97658 | -54.29249 | 40283 ft | 486 kts | 226° |
| 2026-04-30 14:31 | 45.90497 | -54.39553 | 40280 ft | 486 kts | 226° |
| 2026-04-30 14:32 | 45.83335 | -54.49818 | 40276 ft | 485 kts | 226° |
| 2026-04-30 14:33 | 45.78552 | -54.56652 | 40271 ft | 485 kts | 226° |
| 2026-04-30 14:33 | 45.71386 | -54.66858 | 40266 ft | 484 kts | 226° |
| 2026-04-30 14:34 | 45.66613 | -54.73634 | 40261 ft | 483 kts | 226° |
| 2026-04-30 14:34 | 45.61837 | -54.80396 | 40260 ft | 483 kts | 226° |
| 2026-04-30 14:35 | 45.54726 | -54.90435 | 40259 ft | 479 kts | 225° |
| 2026-04-30 14:36 | 45.49985 | -54.97106 | 40258 ft | 478 kts | 225° |
| 2026-04-30 14:36 | 45.45246 | -55.03758 | 40255 ft | 478 kts | 225° |
| 2026-04-30 14:37 | 45.40495 | -55.10410 | 40249 ft | 478 kts | 225° |
| 2026-04-30 14:37 | 45.35746 | -55.17043 | 40246 ft | 478 kts | 225° |
| 2026-04-30 14:38 | 45.30990 | -55.23669 | 40246 ft | 478 kts | 225° |
| 2026-04-30 14:38 | 45.26270 | -55.30228 | 40239 ft | 477 kts | 225° |
| 2026-04-30 14:39 | 45.21535 | -55.36792 | 40240 ft | 475 kts | 225° |
| 2026-04-30 14:39 | 45.16800 | -55.43340 | 40241 ft | 475 kts | 225° |
| 2026-04-30 14:40 | 45.09708 | -55.53118 | 40227 ft | 473 kts | 224° |
| 2026-04-30 14:40 | 45.04991 | -55.59603 | 40226 ft | 472 kts | 224° |
| 2026-04-30 14:41 | 45.00276 | -55.66067 | 40224 ft | 472 kts | 224° |
| 2026-04-30 14:41 | 44.95559 | -55.72520 | 40219 ft | 472 kts | 224° |
| 2026-04-30 14:42 | 44.90844 | -55.78954 | 40217 ft | 471 kts | 224° |
| 2026-04-30 14:42 | 44.86136 | -55.85363 | 40217 ft | 471 kts | 224° |
| 2026-04-30 14:43 | 44.81450 | -55.91727 | 40212 ft | 471 kts | 224° |
| 2026-04-30 14:43 | 44.76741 | -55.98106 | 40209 ft | 469 kts | 224° |
| 2026-04-30 14:44 | 44.72040 | -56.04460 | 40203 ft | 469 kts | 224° |
| 2026-04-30 14:44 | 44.67339 | -56.10799 | 40203 ft | 469 kts | 224° |
| 2026-04-30 14:45 | 44.62628 | -56.17137 | 40194 ft | 468 kts | 223° |
| 2026-04-30 14:45 | 44.57926 | -56.23446 | 40191 ft | 467 kts | 223° |
| 2026-04-30 14:46 | 44.53220 | -56.29747 | 40186 ft | 468 kts | 223° |
| 2026-04-30 14:46 | 44.49298 | -56.34987 | 40187 ft | 467 kts | 223° |
| 2026-04-30 14:47 | 44.43798 | -56.42318 | 40184 ft | 467 kts | 223° |
| 2026-04-30 14:47 | 44.39092 | -56.48574 | 40179 ft | 467 kts | 223° |
| 2026-04-30 14:48 | 44.34380 | -56.54823 | 40173 ft | 467 kts | 223° |
| 2026-04-30 14:48 | 44.29669 | -56.61057 | 40173 ft | 466 kts | 223° |
| 2026-04-30 14:49 | 44.24986 | -56.67240 | 40168 ft | 466 kts | 223° |
| 2026-04-30 14:49 | 44.20275 | -56.73446 | 40167 ft | 466 kts | 223° |
| 2026-04-30 14:50 | 44.13206 | -56.82730 | 40165 ft | 465 kts | 223° |
| 2026-04-30 14:51 | 44.06137 | -56.91982 | 40156 ft | 465 kts | 223° |
| 2026-04-30 14:52 | 43.98883 | -57.00949 | 40158 ft | 465 kts | 216° |
| 2026-04-30 14:52 | 43.90932 | -57.08682 | 40149 ft | 465 kts | 214° |
| 2026-04-30 14:53 | 43.82892 | -57.16258 | 40146 ft | 465 kts | 214° |
| 2026-04-30 14:54 | 43.72220 | -57.26325 | 40141 ft | 465 kts | 214° |
| 2026-04-30 14:55 | 43.64188 | -57.33887 | 40136 ft | 466 kts | 214° |
| 2026-04-30 14:56 | 43.54354 | -57.43109 | 40133 ft | 466 kts | 214° |
| 2026-04-30 14:57 | 43.46296 | -57.50636 | 40127 ft | 466 kts | 214° |
| 2026-04-30 14:58 | 43.35576 | -57.60613 | 40113 ft | 465 kts | 214° |
| 2026-04-30 14:58 | 43.27531 | -57.68073 | 40111 ft | 465 kts | 214° |
| 2026-04-30 15:00 | 43.14091 | -57.80481 | 40103 ft | 467 kts | 214° |
| 2026-04-30 15:01 | 43.04295 | -57.91883 | 40101 ft | 466 kts | 230° |
| 2026-04-30 15:01 | 42.98249 | -58.02336 | 40090 ft | 468 kts | 232° |
| 2026-04-30 15:02 | 42.94260 | -58.09359 | 40092 ft | 468 kts | 232° |
| 2026-04-30 15:03 | 42.84187 | -58.26841 | 40084 ft | 470 kts | 232° |
| 2026-04-30 15:04 | 42.74045 | -58.44296 | 40084 ft | 470 kts | 232° |
| 2026-04-30 15:06 | 42.63898 | -58.61663 | 40076 ft | 470 kts | 232° |
| 2026-04-30 15:07 | 42.55749 | -58.75535 | 40071 ft | 470 kts | 232° |
| 2026-04-30 15:08 | 42.47586 | -58.89368 | 40070 ft | 469 kts | 232° |
| 2026-04-30 15:09 | 42.37360 | -59.06607 | 40061 ft | 469 kts | 232° |
| 2026-04-30 15:10 | 42.29198 | -59.20295 | 40058 ft | 469 kts | 232° |
| 2026-04-30 15:11 | 42.16891 | -59.40816 | 40053 ft | 468 kts | 231° |
| 2026-04-30 15:13 | 42.06631 | -59.57817 | 40052 ft | 467 kts | 231° |
| 2026-04-30 15:14 | 41.92288 | -59.81423 | 40049 ft | 466 kts | 231° |
| 2026-04-30 15:17 | 41.73801 | -60.11577 | 40029 ft | 464 kts | 231° |
| 2026-04-30 15:19 | 41.57379 | -60.38112 | 40010 ft | 463 kts | 231° |
| 2026-04-30 17:39 | 30.03303 | -76.29560 | 39919 ft | 464 kts | 238° |
| 2026-04-30 17:42 | 29.82276 | -76.57742 | 39927 ft | 462 kts | 238° |
| 2026-04-30 17:43 | 29.71789 | -76.71725 | 39902 ft | 462 kts | 237° |
| 2026-04-30 17:44 | 29.58752 | -76.88296 | 39933 ft | 474 kts | 230° |
| 2026-04-30 17:47 | 29.36071 | -77.10572 | 39938 ft | 479 kts | 229° |
| 2026-04-30 17:48 | 29.18348 | -77.27832 | 39939 ft | 478 kts | 228° |
| 2026-04-30 17:50 | 28.98009 | -77.47541 | 39946 ft | 479 kts | 228° |
| 2026-04-30 17:52 | 28.82657 | -77.62349 | 39949 ft | 482 kts | 227° |
| 2026-04-30 17:54 | 28.59602 | -77.84475 | 39948 ft | 483 kts | 227° |
| 2026-04-30 17:56 | 28.39040 | -78.04098 | 39952 ft | 483 kts | 226° |
| 2026-04-30 17:58 | 28.23613 | -78.18753 | 39962 ft | 483 kts | 226° |
| 2026-04-30 18:00 | 28.02953 | -78.38290 | 39964 ft | 486 kts | 226° |
| 2026-04-30 18:01 | 27.89957 | -78.50528 | 39966 ft | 486 kts | 226° |
| 2026-04-30 18:02 | 27.74308 | -78.65212 | 39966 ft | 488 kts | 225° |
| 2026-04-30 18:04 | 27.58635 | -78.79861 | 39971 ft | 487 kts | 225° |
| 2026-04-30 18:06 | 27.37755 | -78.99294 | 37058 ft | 494 kts | 225° |
| 2026-04-30 18:07 | 27.27099 | -79.09167 | 33972 ft | 492 kts | 225° |
| 2026-04-30 18:08 | 27.20131 | -79.15609 | 32125 ft | 482 kts | 225° |
| 2026-04-30 18:09 | 27.09995 | -79.24963 | 29943 ft | 461 kts | 224° |
| 2026-04-30 18:10 | 27.00342 | -79.33854 | 27867 ft | 437 kts | 223° |
| 2026-04-30 18:11 | 26.91180 | -79.42276 | 25913 ft | 418 kts | 222° |
| 2026-04-30 18:11 | 26.84534 | -79.48372 | 24455 ft | 406 kts | 222° |
| 2026-04-30 18:12 | 26.78068 | -79.54294 | 22939 ft | 394 kts | 222° |
| 2026-04-30 18:13 | 26.73870 | -79.58133 | 21977 ft | 385 kts | 222° |
| 2026-04-30 18:13 | 26.67728 | -79.63744 | 20564 ft | 375 kts | 222° |
| 2026-04-30 18:14 | 26.63738 | -79.67385 | 19635 ft | 370 kts | 222° |
| 2026-04-30 18:15 | 26.57813 | -79.72785 | 18238 ft | 364 kts | 223° |
| 2026-04-30 18:15 | 26.51994 | -79.78080 | 16816 ft | 354 kts | 223° |
| 2026-04-30 18:16 | 26.48207 | -79.81522 | 15917 ft | 348 kts | 223° |
| 2026-04-30 18:16 | 26.44479 | -79.84909 | 15035 ft | 343 kts | 223° |
| 2026-04-30 18:17 | 26.42635 | -79.86583 | 14587 ft | 341 kts | 223° |
| 2026-04-30 18:17 | 26.40798 | -79.88251 | 14142 ft | 339 kts | 223° |
| 2026-04-30 18:17 | 26.37155 | -79.91554 | 13220 ft | 334 kts | 223° |
| 2026-04-30 18:18 | 26.35361 | -79.93180 | 12775 ft | 331 kts | 223° |
| 2026-04-30 18:18 | 26.33593 | -79.94780 | 12483 ft | 321 kts | 223° |
| 2026-04-30 18:18 | 26.31893 | -79.96316 | 12346 ft | 307 kts | 223° |
| 2026-04-30 18:18 | 26.30270 | -79.97782 | 12200 ft | 293 kts | 223° |
| 2026-04-30 18:19 | 26.28725 | -79.99179 | 12074 ft | 280 kts | 223° |
| 2026-04-30 18:19 | 26.27241 | -80.00521 | 11935 ft | 269 kts | 223° |
| 2026-04-30 18:19 | 26.25731 | -80.01679 | 11731 ft | 268 kts | 211° |
| 2026-04-30 18:19 | 26.23910 | -80.02194 | 11411 ft | 275 kts | 188° |
| 2026-04-30 18:20 | 26.21968 | -80.02242 | 11097 ft | 276 kts | 184° |
| 2026-04-30 18:20 | 26.20099 | -80.02201 | 10879 ft | 270 kts | 180° |
| 2026-04-30 18:20 | 26.18245 | -80.02035 | 10637 ft | 265 kts | 178° |
| 2026-04-30 18:20 | 26.16419 | -80.01848 | 10324 ft | 263 kts | 178° |
| 2026-04-30 18:21 | 26.14598 | -80.01677 | 10025 ft | 261 kts | 179° |
| 2026-04-30 18:21 | 26.12791 | -80.01515 | 9693 ft | 259 kts | 179° |
| 2026-04-30 18:21 | 26.11052 | -80.01030 | 9397 ft | 260 kts | 153° |
| 2026-04-30 18:21 | 26.09815 | -79.99616 | 9141 ft | 259 kts | 116° |
| 2026-04-30 18:22 | 26.09543 | -79.97612 | 8998 ft | 273 kts | 79° |
| 2026-04-30 18:22 | 26.11924 | -79.94618 | 8737 ft | 266 kts | 11° |
| 2026-04-30 18:22 | 26.13726 | -79.94672 | 8595 ft | 258 kts | 341° |
| 2026-04-30 18:23 | 26.15509 | -79.95304 | 8651 ft | 277 kts | 335° |
| 2026-04-30 18:23 | 26.17102 | -79.96502 | 8651 ft | 278 kts | 311° |
| 2026-04-30 18:23 | 26.17977 | -79.98385 | 8653 ft | 276 kts | 280° |
| 2026-04-30 18:23 | 26.17814 | -80.00492 | 8651 ft | 277 kts | 250° |
| 2026-04-30 18:24 | 26.14911 | -80.03172 | 8351 ft | 285 kts | 199° |
| 2026-04-30 18:24 | 26.12961 | -80.03587 | 8096 ft | 288 kts | 181° |
| 2026-04-30 18:24 | 26.10982 | -80.03558 | 7995 ft | 288 kts | 182° |
| 2026-04-30 18:25 | 26.08983 | -80.03608 | 7983 ft | 287 kts | 185° |
| 2026-04-30 18:25 | 26.05022 | -80.04112 | 7984 ft | 285 kts | 193° |
| 2026-04-30 18:25 | 26.03137 | -80.04751 | 7987 ft | 283 kts | 203° |
| 2026-04-30 18:26 | 25.99514 | -80.06486 | 7997 ft | 282 kts | 206° |
| 2026-04-30 18:26 | 25.97730 | -80.07392 | 7996 ft | 282 kts | 207° |
| 2026-04-30 18:26 | 25.95949 | -80.08307 | 7995 ft | 282 kts | 207° |
| 2026-04-30 18:27 | 25.92387 | -80.10149 | 7996 ft | 282 kts | 207° |
| 2026-04-30 18:27 | 25.90666 | -80.11083 | 7995 ft | 282 kts | 209° |
| 2026-04-30 18:28 | 25.87192 | -80.13118 | 7996 ft | 283 kts | 210° |
| 2026-04-30 18:28 | 25.85447 | -80.14137 | 7995 ft | 283 kts | 210° |
| 2026-04-30 18:28 | 25.81948 | -80.16166 | 7995 ft | 283 kts | 210° |
| 2026-04-30 18:29 | 25.80200 | -80.17176 | 7996 ft | 283 kts | 210° |
| 2026-04-30 18:29 | 25.74981 | -80.20190 | 7998 ft | 282 kts | 210° |
| 2026-04-30 18:30 | 25.72249 | -80.23087 | 7925 ft | 277 kts | 248° |
| 2026-04-30 18:30 | 25.71323 | -80.27130 | 7517 ft | 273 kts | 261° |
| 2026-04-30 18:31 | 25.71137 | -80.29217 | 7231 ft | 272 kts | 267° |
| 2026-04-30 18:31 | 25.70963 | -80.33402 | 6582 ft | 271 kts | 267° |
| 2026-04-30 18:32 | 25.70779 | -80.37580 | 5905 ft | 271 kts | 266° |
| 2026-04-30 18:32 | 25.70681 | -80.39657 | 5608 ft | 268 kts | 266° |
| 2026-04-30 18:32 | 25.71306 | -80.43629 | 5066 ft | 268 kts | 302° |
| 2026-04-30 18:33 | 25.72458 | -80.45253 | 4987 ft | 270 kts | 315° |
| 2026-04-30 18:33 | 25.75736 | -80.47117 | 4911 ft | 252 kts | 333° |
| 2026-04-30 18:33 | 25.77309 | -80.47912 | 4630 ft | 247 kts | 332° |
| 2026-04-30 18:34 | 25.78947 | -80.48481 | 4186 ft | 247 kts | 352° |
| 2026-04-30 18:34 | 25.81775 | -80.46920 | 3309 ft | 233 kts | 60° |
| 2026-04-30 18:34 | 25.82185 | -80.45219 | 2897 ft | 229 kts | 94° |
| 2026-04-30 18:35 | 25.81753 | -80.43567 | 2484 ft | 228 kts | 124° |
| 2026-04-30 18:35 | 25.80725 | -80.42173 | 2076 ft | 235 kts | 134° |
| 2026-04-30 18:35 | 25.79595 | -80.40869 | 1815 ft | 230 kts | 135° |
| 2026-04-30 18:36 | 25.78421 | -80.37955 | 1774 ft | 196 kts | 103° |
| 2026-04-30 18:36 | 25.78427 | -80.36473 | 1791 ft | 192 kts | 86° |
| 2026-04-30 18:36 | 25.78507 | -80.33562 | 1797 ft | 191 kts | 89° |
| 2026-04-30 18:37 | 25.78477 | -80.32106 | 1780 ft | 187 kts | 109° |
| 2026-04-30 18:37 | 25.77769 | -80.30957 | 1789 ft | 182 kts | 146° |
| 2026-04-30 18:37 | 25.76588 | -80.30556 | 1806 ft | 179 kts | 180° |
| 2026-04-30 18:37 | 25.75346 | -80.30653 | 1802 ft | 178 kts | 187° |
| 2026-04-30 18:38 | 25.74120 | -80.30854 | 1789 ft | 179 kts | 189° |
| 2026-04-30 18:38 | 25.72886 | -80.31108 | 1781 ft | 184 kts | 201° |
| 2026-04-30 18:38 | 25.71934 | -80.32037 | 1790 ft | 186 kts | 239° |
| 2026-04-30 18:38 | 25.71560 | -80.33410 | 1789 ft | 187 kts | 259° |
| 2026-04-30 18:39 | 25.71414 | -80.34856 | 1794 ft | 190 kts | 262° |
| 2026-04-30 18:39 | 25.71290 | -80.36312 | 1792 ft | 189 kts | 259° |
| 2026-04-30 18:39 | 25.71130 | -80.37761 | 1792 ft | 190 kts | 259° |
| 2026-04-30 18:39 | 25.70975 | -80.39220 | 1795 ft | 189 kts | 261° |
| 2026-04-30 18:40 | 25.70824 | -80.40666 | 1800 ft | 189 kts | 261° |
| 2026-04-30 18:40 | 25.70675 | -80.42109 | 1803 ft | 188 kts | 260° |
| 2026-04-30 18:40 | 25.70536 | -80.43542 | 1795 ft | 188 kts | 261° |
| 2026-04-30 18:40 | 25.70379 | -80.44968 | 1799 ft | 189 kts | 260° |
| 2026-04-30 18:41 | 25.70220 | -80.46416 | 1796 ft | 190 kts | 261° |
| 2026-04-30 18:41 | 25.70056 | -80.47872 | 1792 ft | 189 kts | 261° |
| 2026-04-30 18:41 | 25.69890 | -80.49324 | 1794 ft | 189 kts | 261° |
| 2026-04-30 18:41 | 25.69904 | -80.50790 | 1798 ft | 192 kts | 272° |
| 2026-04-30 18:42 | 25.70034 | -80.52256 | 1791 ft | 191 kts | 273° |
| 2026-04-30 18:42 | 25.70302 | -80.55186 | 1799 ft | 189 kts | 274° |
| 2026-04-30 18:42 | 25.70452 | -80.56616 | 1788 ft | 187 kts | 278° |
| 2026-04-30 18:45 | 25.77308 | -80.49657 | 1484 ft | 190 kts | 69° |
| 2026-04-30 18:45 | 25.77785 | -80.48296 | 1490 ft | 188 kts | 78° |
| 2026-04-30 18:45 | 25.77980 | -80.46884 | 1508 ft | 185 kts | 88° |
| 2026-04-30 18:46 | 25.78038 | -80.45461 | 1500 ft | 184 kts | 90° |
| 2026-04-30 18:46 | 25.78083 | -80.44239 | 1491 ft | 184 kts | 89° |
| 2026-04-30 18:46 | 25.78141 | -80.42865 | 1490 ft | 184 kts | 90° |
| 2026-04-30 18:46 | 25.78200 | -80.41440 | 1503 ft | 185 kts | 90° |
| 2026-04-30 18:47 | 25.78257 | -80.40040 | 1494 ft | 183 kts | 91° |
| 2026-04-30 18:47 | 25.78316 | -80.38625 | 1351 ft | 185 kts | 89° |
| 2026-04-30 18:47 | 25.78374 | -80.37198 | 1093 ft | 186 kts | 91° |
| 2026-04-30 18:47 | 25.78433 | -80.35777 | 859 ft | 181 kts | 92° |
| 2026-04-30 18:48 | 25.78487 | -80.34412 | 656 ft | 173 kts | 89° |
| 2026-04-30 18:48 | 25.78540 | -80.33124 | 408 ft | 162 kts | 91° |
| 2026-04-30 18:48 | 25.78588 | -80.31933 | 209 ft | 148 kts | 91° |
| 2026-04-30 18:48 | 25.78632 | -80.30835 | 40 ft | 137 kts | 89° |
| 2026-04-30 18:49 | 25.78675 | -80.29875 | 21 ft | 103 kts | 88° |
| 2026-04-30 18:49 | 25.78700 | -80.29278 | 24 ft | 51 kts | 87° |
| 2026-04-30 18:49 | 25.78710 | -80.29087 | 25 ft | 0 kts | 85° |